Time;durP1;ratioP1;P1;durP2;ratioP2;P2;SDS_P1;SDS_P2;PMS_P1;PMS_P2;Temp;Humidity;BMP_temperature;BMP_pressure;BME280_temperature;BME280_humidity;BME280_pressure;Samples;Min_cycle;Max_cycle;Signal;HPM_P1;HPM_P2
2021/12/05 00:30:46;;;;;;;28.00;19.10;;;;;;;-1.61;72.91;98120.10;433469;1312;143343;-71
2021/12/05 00:41:16;;;;;;;33.60;20.20;;;;;;;-1.46;72.70;98123.66;431484;1313;141829;-65
2021/12/05 00:52:11;;;;;;;34.40;20.60;;;;;;;-1.34;72.78;98119.10;431654;1313;142711;-66
2021/12/05 01:02:33;;;;;;;36.20;21.00;;;;;;;-1.31;72.73;98119.84;431529;1312;142099;-65
2021/12/05 01:13:05;;;;;;;32.90;20.30;;;;;;;-1.30;72.78;98120.83;432353;1312;141718;-67
2021/12/05 01:23:24;;;;;;;35.40;21.70;;;;;;;-1.37;72.53;98123.52;434619;1310;142495;-69
2021/12/05 01:33:39;;;;;;;32.50;19.40;;;;;;;-1.30;72.56;98119.27;431794;1313;142544;-69
2021/12/05 01:54:36;;;;;;;34.50;19.80;;;;;;;-1.26;72.43;98107.97;433455;1313;142507;-65
2021/12/05 02:36:33;;;;;;;37.00;20.90;;;;;;;-0.91;71.97;98098.48;433898;1312;142392;-65
2021/12/05 02:46:42;;;;;;;35.30;19.50;;;;;;;-0.87;72.05;98097.80;434629;1310;141897;-64
2021/12/05 02:56:50;;;;;;;36.60;19.00;;;;;;;-0.87;71.98;98097.98;433553;1313;163978;-72
2021/12/05 03:06:57;;;;;;;29.70;18.50;;;;;;;-0.87;71.99;98096.59;432355;1315;142015;-73
2021/12/05 03:17:03;;;;;;;30.00;18.50;;;;;;;-0.85;71.73;98074.53;434393;1315;142298;-73
2021/12/05 03:27:09;;;;;;;33.60;18.20;;;;;;;-0.83;71.86;98087.00;423790;1313;142766;-65
2021/12/05 03:37:15;;;;;;;23.10;13.80;;;;;;;-0.83;71.52;98095.92;434004;1313;231715;-60
2021/12/05 03:47:22;;;;;;;31.70;17.90;;;;;;;-0.82;71.74;98100.02;434580;1312;142614;-60
2021/12/05 03:57:27;;;;;;;;;;;;;;;-0.80;71.46;98098.91;433620;1310;142149;-59
2021/12/05 04:07:33;;;;;;;27.00;17.00;;;;;;;-0.77;71.50;98088.31;426802;1312;128042;-60
2021/12/05 04:17:40;;;;;;;24.90;15.20;;;;;;;-0.77;71.38;98075.42;433836;1315;141448;-59
2021/12/05 04:27:48;;;;;;;23.30;14.50;;;;;;;-0.76;71.47;98078.28;433809;1313;142033;-59
2021/12/05 04:37:55;;;;;;;28.90;16.80;;;;;;;-0.81;71.40;98085.90;434557;1313;142096;-60
2021/12/05 04:48:00;;;;;;;;;;;;;;;-0.84;71.33;98096.65;426149;1315;145428;-62
2021/12/05 04:58:06;;;;;;;25.70;16.30;;;;;;;-0.87;71.28;98101.23;421161;1314;183154;-60
2021/12/05 05:08:12;;;;;;;26.80;16.10;;;;;;;-0.87;71.02;98106.25;426320;1315;142265;-59
2021/12/05 05:18:20;;;;;;;24.80;15.50;;;;;;;-0.85;71.13;98109.92;422919;1314;142870;-61
2021/12/05 05:28:46;;;;;;;21.20;14.00;;;;;;;-0.84;71.05;98111.95;434418;1312;143403;-60
2021/12/05 05:39:29;;;;;;;24.70;15.60;;;;;;;-0.83;71.07;98120.50;432462;1316;142873;-60
2021/12/05 05:49:51;;;;;;;27.30;15.90;;;;;;;-0.81;71.17;98126.09;434633;1312;142837;-58
2021/12/05 06:00:04;;;;;;;23.70;15.10;;;;;;;-0.80;71.13;98129.48;432441;1314;142058;-59
2021/12/05 06:10:12;;;;;;;21.20;15.10;;;;;;;-0.81;71.09;98144.62;433226;1313;143104;-60
2021/12/05 06:20:21;;;;;;;27.20;16.80;;;;;;;-0.83;71.27;98157.09;434681;1313;142355;-60
2021/12/05 06:30:40;;;;;;;22.00;14.30;;;;;;;-0.84;71.39;98171.05;433822;1315;142504;-60
2021/12/05 06:41:03;;;;;;;25.20;16.60;;;;;;;-0.86;71.51;98183.66;434681;1312;142759;-59
2021/12/05 06:51:10;;;;;;;24.20;16.30;;;;;;;-0.87;71.43;98198.16;432521;1313;142745;-61
2021/12/05 07:01:18;;;;;;;24.30;16.20;;;;;;;-0.84;71.65;98213.00;434622;1314;143524;-60
2021/12/05 07:11:28;;;;;;;26.60;14.60;;;;;;;-0.79;71.65;98224.30;433172;1313;142051;-60
2021/12/05 07:21:42;;;;;;;24.50;16.20;;;;;;;-0.74;71.65;98237.67;432410;1313;142426;-62
2021/12/05 07:42:27;;;;;;;27.10;18.00;;;;;;;-0.91;73.56;98246.73;420857;1314;143157;-59
2021/12/05 07:52:38;;;;;;;25.70;17.80;;;;;;;-1.12;74.47;98253.74;428884;1313;141688;-59
2021/12/05 08:23:31;;;;;;;33.80;20.60;;;;;;;-1.08;76.34;98252.40;434075;1312;141959;-59
2021/12/05 08:33:52;;;;;;;28.30;19.60;;;;;;;-1.01;76.63;98247.12;433935;1312;142297;-59
2021/12/05 10:07:34;;;;;;;30.30;21.60;;;;;;;-0.13;77.23;98265.15;433051;1313;142973;-59
2021/12/05 10:18:25;;;;;;;28.90;20.20;;;;;;;-0.05;77.12;98262.41;434437;1313;143107;-59
2021/12/05 10:39:03;;;;;;;33.80;24.10;;;;;;;-0.06;77.39;98258.02;430893;1313;142415;-60
2021/12/05 10:49:13;;;;;;;43.50;27.80;;;;;;;0.02;77.53;98250.08;423396;1313;141784;-59
2021/12/05 10:59:21;;;;;;;42.30;29.90;;;;;;;0.15;77.26;98249.19;418395;1313;142507;-65
2021/12/05 11:09:29;;;;;;;45.60;30.00;;;;;;;0.11;77.22;98240.05;433763;1312;141933;-61
2021/12/05 11:19:41;;;;;;;40.80;28.90;;;;;;;0.11;77.14;98230.42;433668;1312;141970;-61
2021/12/05 11:30:02;;;;;;;42.80;28.60;;;;;;;0.38;76.96;98224.46;433793;1313;142442;-68
2021/12/05 11:40:10;;;;;;;35.20;24.80;;;;;;;0.48;76.28;98245.38;434442;1310;292089;-64
2021/12/05 11:50:19;;;;;;;38.10;25.40;;;;;;;0.11;76.37;98252.10;426914;1313;141475;-66
2021/12/05 12:00:27;;;;;;;35.00;24.60;;;;;;;-0.00;76.62;98257.41;432428;1306;142537;-67
2021/12/05 12:10:37;;;;;;;41.50;28.60;;;;;;;-0.13;76.70;98277.52;433052;1312;142267;-64
2021/12/05 12:20:46;;;;;;;50.70;31.50;;;;;;;-0.33;76.92;98294.71;434416;1312;142907;-63
2021/12/05 12:30:58;;;;;;;44.90;30.40;;;;;;;-0.51;77.13;98306.22;431948;1313;152438;-63
2021/12/05 12:41:12;;;;;;;47.80;34.10;;;;;;;-0.58;77.64;98304.60;433549;1313;143055;-60
2021/12/05 12:51:34;;;;;;;42.80;28.60;;;;;;;-0.61;77.67;98315.55;433847;1313;143100;-54
2021/12/05 13:02:24;;;;;;;40.50;28.20;;;;;;;-0.69;78.18;98322.41;433046;1312;142632;-61
2021/12/05 13:12:45;;;;;;;42.90;26.00;;;;;;;-0.80;78.32;98320.05;431847;1312;141945;-58
2021/12/05 13:23:11;;;;;;;37.30;26.00;;;;;;;-0.90;78.60;98328.70;434536;1310;144475;-59
2021/12/05 13:33:20;;;;;;;33.40;22.00;;;;;;;-1.01;78.98;98326.66;432405;1312;143711;-58
2021/12/05 13:43:30;;;;;;;34.80;24.40;;;;;;;-1.04;78.79;98326.60;434507;1312;143849;-59
2021/12/05 13:53:47;;;;;;;32.90;22.90;;;;;;;-1.04;79.07;98324.20;433170;1312;143122;-58
2021/12/05 14:04:03;;;;;;;32.90;24.10;;;;;;;-0.98;79.44;98324.16;420043;1313;141643;-58
2021/12/05 14:14:10;;;;;;;36.10;25.40;;;;;;;-1.04;79.75;98327.78;433487;1312;141993;-60
2021/12/05 14:24:18;;;;;;;32.50;21.80;;;;;;;-1.06;79.85;98338.02;432468;1312;142676;-60
2021/12/05 14:34:25;;;;;;;38.60;27.00;;;;;;;-1.08;79.70;98342.38;431275;1313;141887;-59
2021/12/05 14:44:31;;;;;;;32.10;21.60;;;;;;;-1.22;79.96;98345.30;427784;1312;142740;-59
2021/12/05 14:54:40;;;;;;;31.60;21.40;;;;;;;-1.29;80.38;98365.63;433295;1312;141874;-59
2021/12/05 15:04:48;;;;;;;39.60;24.60;;;;;;;-1.26;80.49;98384.05;434116;1312;142390;-59
2021/12/05 15:14:57;;;;;;;32.60;22.40;;;;;;;-1.30;80.43;98377.69;432155;1310;142547;-59
2021/12/05 15:25:05;;;;;;;37.30;25.80;;;;;;;-1.36;80.57;98389.40;432884;1313;143507;-58
2021/12/05 15:35:15;;;;;;;46.50;29.00;;;;;;;-1.30;80.87;98399.15;434320;1309;142310;-59
2021/12/05 15:45:22;;;;;;;39.10;27.70;;;;;;;-1.24;80.77;98402.04;432398;1309;142258;-60
2021/12/05 15:55:27;;;;;;;;;;;;;;;-1.19;81.02;98404.77;433217;1309;143079;-60
2021/12/05 16:05:35;;;;;;;41.30;26.20;;;;;;;-1.17;81.05;98412.43;427254;1314;127487;-59
2021/12/05 16:15:43;;;;;;;35.40;25.10;;;;;;;-1.26;81.26;98413.26;432027;1313;142627;-60
2021/12/05 16:26:04;;;;;;;37.80;25.70;;;;;;;-1.33;81.28;98411.95;434397;1310;143162;-60
2021/12/05 16:36:10;;;;;;;40.90;26.50;;;;;;;-1.35;81.58;98415.26;429965;1312;142877;-57
2021/12/05 16:46:21;;;;;;;44.20;27.40;;;;;;;-1.33;81.43;98440.27;417783;1312;142466;-61
2021/12/05 16:56:48;;;;;;;43.30;27.80;;;;;;;-1.40;81.82;98443.77;433058;1312;141966;-61
2021/12/05 17:06:55;;;;;;;;;;;;;;;-1.37;81.76;98444.19;429707;1312;142797;-61
2021/12/05 17:16:59;;;;;;;;;;;;;;;-1.37;81.99;98450.74;433349;1313;127996;-61
2021/12/05 17:27:08;;;;;;;44.80;28.60;;;;;;;-1.35;82.00;98462.14;425938;1310;128886;-60
2021/12/05 17:37:20;;;;;;;48.10;30.70;;;;;;;-1.36;82.08;98466.98;425320;1313;141976;-60
2021/12/05 17:47:28;;;;;;;43.20;28.40;;;;;;;-1.46;82.29;98469.37;433824;1312;141479;-65
2021/12/05 17:57:39;;;;;;;54.50;31.10;;;;;;;-1.55;82.61;98472.58;433297;1313;141555;-63
2021/12/05 18:07:47;;;;;;;51.50;29.30;;;;;;;-1.50;82.59;98486.85;433997;1312;141407;-67
2021/12/05 18:17:53;;;;;;;47.90;27.30;;;;;;;-1.43;82.79;98497.80;433570;1313;141998;-61
2021/12/05 18:28:00;;;;;;;51.90;29.70;;;;;;;-1.39;82.83;98495.42;428905;1312;142711;-59
2021/12/05 18:38:12;;;;;;;51.20;31.90;;;;;;;-1.43;82.68;98495.20;423055;1313;142811;-62
2021/12/05 18:48:18;;;;;;;52.30;31.90;;;;;;;-1.44;82.89;98503.98;418019;1314;142282;-61
2021/12/05 18:58:26;;;;;;;54.60;31.60;;;;;;;-1.49;83.14;98509.14;432684;1313;142329;-61
2021/12/05 19:08:39;;;;;;;53.40;30.60;;;;;;;-1.44;83.22;98527.66;434029;1310;142192;-62
2021/12/05 19:18:45;;;;;;;51.10;33.10;;;;;;;-1.36;83.26;98531.58;431928;1313;141620;-61
2021/12/05 19:28:52;;;;;;;64.80;34.20;;;;;;;-1.32;83.09;98543.61;429578;1312;141612;-64
2021/12/05 19:38:58;;;;;;;61.30;34.20;;;;;;;-1.28;83.17;98550.54;418932;1313;180552;-66
2021/12/05 19:49:06;;;;;;;59.10;30.40;;;;;;;-1.23;83.38;98553.62;423506;1314;142386;-62
2021/12/05 19:59:14;;;;;;;54.50;32.70;;;;;;;-1.27;83.16;98547.05;431597;1312;142267;-60
2021/12/05 20:09:22;;;;;;;56.60;33.30;;;;;;;-1.23;83.31;98548.66;433723;1312;142912;-68
2021/12/05 20:19:30;;;;;;;50.40;30.40;;;;;;;-1.21;83.29;98560.11;427267;1312;142109;-65
2021/12/05 20:29:37;;;;;;;51.70;29.80;;;;;;;-1.21;83.10;98560.10;430649;1314;141878;-64
2021/12/05 20:39:43;;;;;;;56.00;33.80;;;;;;;-1.22;83.13;98566.66;433680;1314;142453;-64
2021/12/05 20:49:49;;;;;;;58.60;34.80;;;;;;;-1.21;83.05;98574.02;433472;1312;143220;-64
2021/12/05 20:59:55;;;;;;;52.10;31.20;;;;;;;-1.27;83.03;98572.98;433780;1310;141651;-59
2021/12/05 21:10:02;;;;;;;54.90;31.00;;;;;;;-1.26;83.05;98563.17;434639;1309;142562;-58
2021/12/05 21:20:11;;;;;;;53.00;32.00;;;;;;;-1.29;82.85;98573.56;433036;1309;142096;-61
2021/12/05 21:30:21;;;;;;;58.40;33.10;;;;;;;-1.28;83.00;98573.21;418416;1312;143201;-59
2021/12/05 21:40:31;;;;;;;62.00;34.30;;;;;;;-1.32;82.81;98577.96;432935;1312;142593;-60
2021/12/05 21:50:37;;;;;;;62.30;33.50;;;;;;;-1.27;83.10;98572.13;427690;1313;142628;-58
2021/12/05 22:00:47;;;;;;;66.10;33.20;;;;;;;-1.31;82.90;98570.39;419307;1313;142679;-73
2021/12/05 22:10:55;;;;;;;60.50;35.60;;;;;;;-1.38;83.25;98573.02;432854;1314;142011;-73
2021/12/05 22:21:11;;;;;;;60.50;33.80;;;;;;;-1.35;83.42;98573.09;433250;1314;142884;-74
2021/12/05 22:31:17;;;;;;;52.60;32.30;;;;;;;-1.37;83.34;98573.32;423075;1312;143673;-73
2021/12/05 22:41:24;;;;;;;61.80;37.70;;;;;;;-1.40;83.38;98583.52;422705;1313;142376;-74
2021/12/05 22:51:30;;;;;;;;;;;;;;;-1.40;83.37;98594.85;419512;1312;141376;-71
2021/12/05 23:01:35;;;;;;;;;;;;;;;-1.39;83.57;98592.44;424763;1310;128790;-73
2021/12/05 23:11:42;;;;;;;54.30;33.70;;;;;;;-1.35;83.69;98578.90;422602;1314;130060;-72
2021/12/05 23:21:52;;;;;;;57.30;31.90;;;;;;;-1.32;83.65;98585.86;426436;1312;141595;-72
2021/12/05 23:32:03;;;;;;;51.60;31.60;;;;;;;-1.31;83.78;98600.26;434407;1315;142610;-67
2021/12/05 23:42:11;;;;;;;50.30;28.50;;;;;;;-1.25;83.47;98615.66;433939;1313;142887;-68
2021/12/05 23:52:17;;;;;;;46.40;26.60;;;;;;;-1.10;83.40;98596.16;433895;1312;141781;-68
